Time;durP1;ratioP1;P1;durP2;ratioP2;P2;SDS_P1;SDS_P2;PMS_P1;PMS_P2;Temp;Humidity;BMP_temperature;BMP_pressure;BME280_temperature;BME280_humidity;BME280_pressure;Samples;Min_cycle;Max_cycle;Signal;HPM_P1;HPM_P2
2023/07/10 00:00:20;;;;;;;6.07;4.53;;;;;;;21.30;53.32;101173.13;4981126;28;20564;-73
2023/07/10 00:02:49;;;;;;;10.40;5.30;;;;;;;21.27;53.80;101175.81;4978991;28;20200;-77
2023/07/10 00:05:18;;;;;;;5.73;4.90;;;;;;;21.23;54.49;101180.38;4979772;28;20208;-77
2023/07/10 00:07:44;;;;;;;6.80;5.57;;;;;;;21.18;54.78;101178.09;4980601;28;20221;-76
2023/07/10 00:10:11;;;;;;;6.47;5.00;;;;;;;21.13;55.04;101179.25;4980858;28;20209;-73
2023/07/10 00:12:38;;;;;;;6.30;5.53;;;;;;;21.09;53.90;101183.84;4982769;28;20288;-76
2023/07/10 00:15:18;;;;;;;6.07;5.30;;;;;;;21.04;54.93;101181.50;4981085;28;20677;-77
2023/07/10 00:17:45;;;;;;;6.50;5.60;;;;;;;20.97;54.56;101168.09;4979683;28;20220;-76
2023/07/10 00:20:18;;;;;;;6.23;5.27;;;;;;;20.94;54.99;101173.44;4980587;28;20217;-73
2023/07/10 00:22:44;;;;;;;8.53;5.27;;;;;;;20.88;55.83;101172.25;4977303;28;20220;-75
2023/07/10 00:25:15;;;;;;;6.63;5.20;;;;;;;20.84;55.96;101171.44;4960015;28;20209;-74
2023/07/10 00:27:42;;;;;;;7.77;5.93;;;;;;;20.79;56.62;101169.91;4975384;28;20220;-75
2023/07/10 00:30:16;;;;;;;6.43;5.40;;;;;;;20.76;56.55;101183.34;4972933;28;20197;-74
2023/07/10 00:32:44;;;;;;;6.23;5.00;;;;;;;20.70;56.87;101174.13;4976911;28;20817;-74
2023/07/10 00:35:16;;;;;;;5.73;5.13;;;;;;;20.66;57.59;101176.00;4977692;28;20253;-75
2023/07/10 00:37:47;;;;;;;6.07;5.40;;;;;;;20.60;57.16;101174.84;4977621;28;20690;-74
2023/07/10 00:40:20;;;;;;;7.13;5.30;;;;;;;20.55;57.11;101173.28;4974426;28;20217;-75
2023/07/10 00:42:47;;;;;;;5.97;5.37;;;;;;;20.50;57.34;101179.00;4977447;28;20293;-74
2023/07/10 00:45:16;;;;;;;6.77;5.40;;;;;;;20.47;58.18;101173.63;4962390;28;20215;-75
2023/07/10 00:47:53;;;;;;;6.13;4.93;;;;;;;20.41;58.26;101175.94;4976802;28;20843;-74
2023/07/10 00:50:22;;;;;;;7.17;5.70;;;;;;;20.38;58.34;101170.53;4962379;28;20593;-73
2023/07/10 00:52:51;;;;;;;8.07;6.20;;;;;;;20.34;57.76;101167.06;4975341;28;20737;-73
2023/07/10 00:55:22;;;;;;;6.00;5.40;;;;;;;20.29;59.02;101168.19;4961995;28;20981;-73
2023/07/10 00:57:53;;;;;;;6.73;5.20;;;;;;;20.25;58.80;101174.69;4976108;28;20244;-72
2023/07/10 01:00:23;;;;;;;6.30;5.53;;;;;;;20.22;59.41;101176.19;4976985;28;20221;-75
2023/07/10 01:02:50;;;;;;;6.67;5.60;;;;;;;20.18;58.16;101170.03;4960427;28;20201;-74
2023/07/10 01:05:18;;;;;;;7.67;5.70;;;;;;;20.14;58.29;101166.59;4961828;28;20221;-74
2023/07/10 01:07:51;;;;;;;9.63;5.80;;;;;;;20.12;58.87;101176.16;4976152;28;20712;-74
2023/07/10 01:10:19;;;;;;;8.17;5.97;;;;;;;20.07;59.63;101171.91;4976446;28;20201;-74
2023/07/10 01:12:47;;;;;;;7.27;6.23;;;;;;;20.03;59.72;101171.06;4975802;28;20708;-74
2023/07/10 01:15:16;;;;;;;6.83;6.13;;;;;;;20.00;59.16;101179.09;4963431;28;20592;-76
2023/07/10 01:17:42;;;;;;;6.40;5.30;;;;;;;19.97;60.12;101183.31;4977829;28;20734;-74
2023/07/10 01:20:31;;;;;;;7.20;6.30;;;;;;;19.94;60.15;101181.38;4976055;28;20198;-74
2023/07/10 01:23:00;;;;;;;9.47;5.77;;;;;;;19.89;60.61;101180.94;4975615;28;20686;-74
2023/07/10 01:25:27;;;;;;;6.63;6.00;;;;;;;19.85;60.25;101180.94;4963857;28;20213;-74
2023/07/10 01:27:53;;;;;;;22.63;7.97;;;;;;;19.82;60.55;101181.66;4961152;28;20234;-74
2023/07/10 01:30:24;;;;;;;6.83;6.10;;;;;;;19.78;59.71;101188.16;4979210;28;20190;-74
2023/07/10 01:32:53;;;;;;;7.97;5.93;;;;;;;19.73;58.41;101183.13;4982934;28;20228;-75
2023/07/10 01:35:20;;;;;;;6.47;5.87;;;;;;;19.70;59.11;101178.50;4962696;28;20211;-74
2023/07/10 01:37:47;;;;;;;7.03;6.33;;;;;;;19.68;58.76;101183.47;4982991;28;20315;-74
2023/07/10 01:40:21;;;;;;;7.07;6.00;;;;;;;19.65;58.72;101184.22;4979679;28;20244;-74
2023/07/10 01:42:48;;;;;;;7.20;5.70;;;;;;;19.63;58.52;101184.59;4963442;28;20212;-74
2023/07/10 01:45:14;;;;;;;10.33;6.70;;;;;;;19.62;59.27;101179.63;4979900;28;20268;-74
2023/07/10 01:47:41;;;;;;;6.73;5.60;;;;;;;19.62;59.85;101188.41;4978174;28;20225;-74
2023/07/10 01:50:09;;;;;;;8.27;6.30;;;;;;;19.60;60.94;101187.22;4978900;28;20216;-75
2023/07/10 01:52:36;;;;;;;8.07;6.20;;;;;;;19.60;61.26;101188.00;4985520;28;20712;-74
2023/07/10 01:55:03;;;;;;;6.63;5.90;;;;;;;19.59;61.43;101197.19;4969880;28;20711;-73
2023/07/10 01:57:32;;;;;;;7.37;6.23;;;;;;;19.57;61.90;101196.81;4971055;28;20781;-75
2023/07/10 01:59:59;;;;;;;7.47;6.23;;;;;;;19.61;61.99;101196.84;4970200;28;20214;-76
2023/07/10 02:02:25;;;;;;;7.70;6.27;;;;;;;19.62;61.40;101203.72;4984668;28;20602;-73
2023/07/10 02:04:52;;;;;;;6.77;6.07;;;;;;;19.63;61.64;101189.97;4983405;28;20211;-76
2023/07/10 02:07:19;;;;;;;7.77;6.20;;;;;;;19.63;61.28;101214.09;4971044;28;20638;-74
2023/07/10 02:09:45;;;;;;;9.30;6.17;;;;;;;19.61;62.67;101226.31;4974439;28;20205;-73
2023/07/10 02:12:14;;;;;;;7.67;6.30;;;;;;;19.52;61.45;101274.84;4989874;28;20225;-73
2023/07/10 02:14:42;;;;;;;7.63;6.77;;;;;;;19.49;59.22;101267.53;5001499;28;20199;-72
2023/07/10 02:17:09;;;;;;;8.23;6.63;;;;;;;19.54;58.31;101250.34;4982701;28;20257;-74
2023/07/10 02:19:38;;;;;;;7.83;7.00;;;;;;;19.55;59.13;101271.41;4978965;28;20197;-74
2023/07/10 02:22:05;;;;;;;7.73;6.83;;;;;;;19.56;59.30;101275.63;4961917;28;20690;-74
2023/07/10 02:24:32;;;;;;;9.83;6.53;;;;;;;19.61;58.08;101264.56;4978090;28;20205;-75
2023/07/10 02:26:59;;;;;;;6.90;6.20;;;;;;;19.66;58.00;101236.69;4978866;28;20398;-72
2023/07/10 02:29:28;;;;;;;7.23;6.50;;;;;;;19.70;57.15;101234.78;4979604;28;20225;-74
2023/07/10 02:31:56;;;;;;;9.67;7.50;;;;;;;19.75;58.14;101232.53;4962021;28;20221;-75
2023/07/10 02:34:23;;;;;;;9.43;7.23;;;;;;;19.80;59.22;101240.25;4960697;28;20213;-75
2023/07/10 02:36:49;;;;;;;8.40;7.03;;;;;;;19.83;56.75;101217.28;4978147;28;20299;-75
2023/07/10 02:39:16;;;;;;;7.57;6.77;;;;;;;19.85;55.62;101186.28;4961735;28;20209;-74
2023/07/10 02:41:43;;;;;;;7.93;6.87;;;;;;;19.91;55.16;101170.63;4959964;28;20216;-74
2023/07/10 02:44:10;;;;;;;7.43;6.37;;;;;;;19.96;56.43;101167.59;4975690;28;20209;-73
2023/07/10 02:46:36;;;;;;;8.63;6.97;;;;;;;20.01;56.24;101157.28;4977439;28;20300;-74
2023/07/10 02:49:04;;;;;;;7.70;6.07;;;;;;;20.06;55.65;101148.13;4976507;28;20248;-74
2023/07/10 02:51:31;;;;;;;8.30;7.00;;;;;;;20.12;57.38;101146.66;4959516;28;20754;-74
2023/07/10 02:53:58;;;;;;;6.97;6.10;;;;;;;20.15;56.44;101121.75;4975254;28;20280;-75
2023/07/10 02:56:26;;;;;;;7.97;6.80;;;;;;;20.19;54.92;101107.22;4958402;28;20708;-74
2023/07/10 02:58:53;;;;;;;7.43;6.60;;;;;;;20.25;54.02;101107.63;4978728;28;20209;-75
2023/07/10 03:01:25;;;;;;;8.63;7.30;;;;;;;20.31;54.57;101120.31;4975140;28;20580;-74
2023/07/10 03:03:52;;;;;;;7.83;6.00;;;;;;;20.36;56.74;101138.72;4958719;28;20209;-74
2023/07/10 03:06:20;;;;;;;6.53;5.93;;;;;;;20.41;59.09;101134.91;4973265;28;20284;-75
2023/07/10 03:08:47;;;;;;;6.53;5.80;;;;;;;20.43;58.27;101119.97;4973820;28;20196;-74
2023/07/10 03:11:16;;;;;;;7.17;6.33;;;;;;;20.45;57.70;101111.53;4977106;28;20198;-74
2023/07/10 03:13:42;;;;;;;7.93;6.67;;;;;;;20.45;56.03;101098.91;4978502;28;20522;-75
2023/07/10 03:16:14;;;;;;;8.40;6.93;;;;;;;20.47;54.63;101099.28;4961885;28;20233;-74
2023/07/10 03:18:41;;;;;;;8.87;6.57;;;;;;;20.51;54.77;101091.25;4974603;28;20584;-73
2023/07/10 03:21:09;;;;;;;9.40;6.90;;;;;;;20.52;54.30;101085.50;4975366;28;20272;-73
2023/07/10 03:23:38;;;;;;;9.03;6.97;;;;;;;20.55;53.91;101078.63;4978399;28;20692;-74
2023/07/10 03:26:05;;;;;;;7.23;6.50;;;;;;;20.58;54.14;101073.25;4973879;28;20242;-73
2023/07/10 03:28:36;;;;;;;7.73;6.60;;;;;;;20.62;54.10;101067.88;4974621;28;20583;-73
2023/07/10 03:31:04;;;;;;;8.60;7.40;;;;;;;20.66;54.04;101074.81;4972496;28;20312;-74
2023/07/10 03:33:30;;;;;;;7.60;6.80;;;;;;;20.72;56.03;101059.09;4973099;28;20213;-73
2023/07/10 03:36:00;;;;;;;8.90;6.77;;;;;;;20.75;56.55;101066.38;4974156;28;20677;-73
2023/07/10 03:38:27;;;;;;;7.00;6.03;;;;;;;20.77;56.62;101074.81;4973967;28;20581;-73
2023/07/10 03:40:57;;;;;;;9.87;7.30;;;;;;;20.79;58.48;101075.97;4974126;28;20214;-73
2023/07/10 03:43:26;;;;;;;8.37;6.77;;;;;;;20.80;57.73;101082.88;4973997;28;20285;-73
2023/07/10 03:45:53;;;;;;;9.17;6.47;;;;;;;20.82;57.34;101074.44;4955601;28;20213;-73
2023/07/10 03:48:20;;;;;;;8.13;6.70;;;;;;;20.84;58.22;101085.53;4973300;28;20675;-73
2023/07/10 03:50:46;;;;;;;7.93;6.57;;;;;;;20.86;58.02;101081.34;4973037;28;20206;-73
2023/07/10 03:53:13;;;;;;;7.40;6.50;;;;;;;20.89;57.30;101094.03;4973459;28;20221;-73
2023/07/10 03:55:48;;;;;;;7.53;6.73;;;;;;;20.92;59.61;101119.34;4973002;28;20205;-73
2023/07/10 03:58:24;;;;;;;7.40;6.60;;;;;;;20.93;61.39;101134.31;4972130;28;20718;-73
2023/07/10 04:00:53;;;;;;;8.90;7.00;;;;;;;20.91;61.46;101152.72;4972713;28;20668;-73
2023/07/10 04:03:23;;;;;;;11.10;7.17;;;;;;;20.91;59.50;101166.16;4968756;28;20213;-73
2023/07/10 04:05:52;;;;;;;7.73;6.47;;;;;;;20.90;59.53;101164.63;4972637;28;20224;-74
2023/07/10 04:08:20;;;;;;;9.93;7.27;;;;;;;20.89;59.04;101158.47;4971248;28;20368;-74
2023/07/10 04:10:52;;;;;;;7.53;6.53;;;;;;;20.90;57.91;101151.19;4972026;28;20206;-74
2023/07/10 04:13:22;;;;;;;7.67;6.93;;;;;;;20.91;56.82;101148.09;4956889;28;20244;-74
2023/07/10 04:15:59;;;;;;;9.80;7.53;;;;;;;20.94;56.35;101142.00;4952238;28;20296;-74
2023/07/10 04:18:29;;;;;;;7.93;6.90;;;;;;;20.97;56.60;101137.78;4972572;28;20701;-74
2023/07/10 04:20:56;;;;;;;10.20;7.67;;;;;;;21.03;56.29;101128.97;4954129;28;20508;-75
2023/07/10 04:23:25;;;;;;;10.20;7.30;;;;;;;21.08;55.11;101100.94;4973364;28;20201;-74
2023/07/10 04:25:52;;;;;;;8.00;7.20;;;;;;;21.14;54.50;101110.16;4984508;28;20260;-76
2023/07/10 04:28:25;;;;;;;13.27;7.10;;;;;;;21.22;55.14;101114.41;4981366;28;20224;-75
2023/07/10 04:30:53;;;;;;;9.27;7.10;;;;;;;21.29;55.51;101106.31;4984536;28;20201;-75
2023/07/10 04:33:21;;;;;;;8.63;7.10;;;;;;;21.37;54.32;101113.25;4982114;28;20585;-75
2023/07/10 04:35:55;;;;;;;9.27;7.60;;;;;;;21.44;53.50;101097.09;4968120;28;20598;-75
2023/07/10 04:38:25;;;;;;;8.20;7.40;;;;;;;21.51;53.42;101089.81;4981685;28;20214;-76
2023/07/10 04:40:52;;;;;;;7.97;7.17;;;;;;;21.59;53.58;101085.19;4985069;28;20658;-75
2023/07/10 04:43:20;;;;;;;9.03;7.70;;;;;;;21.67;52.48;101084.03;4982495;28;20200;-75
2023/07/10 04:45:46;;;;;;;8.47;7.33;;;;;;;21.75;52.02;101078.28;4982870;28;20348;-76
2023/07/10 04:48:13;;;;;;;8.37;7.53;;;;;;;21.85;51.93;101087.47;4981936;28;20201;-74
2023/07/10 04:50:39;;;;;;;8.30;7.40;;;;;;;21.95;51.62;101094.72;4967912;28;20205;-75
2023/07/10 04:53:08;;;;;;;14.23;7.43;;;;;;;22.05;51.67;101099.31;4982289;28;20213;-73
2023/07/10 04:55:34;;;;;;;9.37;7.33;;;;;;;22.12;52.38;101096.59;4982517;28;20193;-77
2023/07/10 04:58:00;;;;;;;9.90;7.97;;;;;;;22.20;51.70;101106.16;4968988;28;20225;-75
2023/07/10 05:00:28;;;;;;;8.53;7.40;;;;;;;22.26;55.37;101099.22;4987852;28;20308;-73
2023/07/10 05:02:55;;;;;;;10.93;7.30;;;;;;;22.31;55.35;101101.50;4991557;28;20214;-71
2023/07/10 05:05:22;;;;;;;7.63;6.87;;;;;;;22.35;56.51;101110.34;4977024;28;20888;-72
2023/07/10 05:07:49;;;;;;;8.50;7.60;;;;;;;22.36;57.39;101117.25;4978457;28;20240;-72
2023/07/10 05:10:16;;;;;;;7.67;6.80;;;;;;;22.34;54.21;101090.72;4998392;28;20201;-72
2023/07/10 05:12:42;;;;;;;8.53;7.63;;;;;;;22.35;53.44;101064.59;4983987;28;20229;-75
2023/07/10 05:15:10;;;;;;;9.07;7.50;;;;;;;22.37;53.55;101059.56;5004149;28;20205;-74
2023/07/10 05:17:38;;;;;;;8.53;7.00;;;;;;;22.37;53.21;101065.72;4956929;28;20852;-74
2023/07/10 05:20:06;;;;;;;11.20;7.80;;;;;;;22.38;53.73;101078.03;4969919;28;20362;-74
2023/07/10 05:22:32;;;;;;;8.33;7.53;;;;;;;22.41;53.78;101079.16;4972999;28;20193;-78
2023/07/10 05:24:59;;;;;;;9.07;8.17;;;;;;;22.46;53.38;101084.91;4987836;28;20209;-73
2023/07/10 05:27:26;;;;;;;12.03;8.17;;;;;;;22.51;52.99;101081.06;4970722;28;20249;-73
2023/07/10 05:29:52;;;;;;;9.30;7.90;;;;;;;22.55;52.78;101073.72;4985477;28;20193;-75
2023/07/10 05:32:19;;;;;;;10.20;7.53;;;;;;;22.59;52.65;101069.84;4970276;28;20254;-77
2023/07/10 05:34:47;;;;;;;8.30;7.17;;;;;;;22.64;53.32;101074.81;4984766;28;20221;-76
2023/07/10 05:37:13;;;;;;;10.10;7.47;;;;;;;22.68;56.07;101078.25;4987790;28;20226;-74
2023/07/10 05:39:40;;;;;;;10.27;7.80;;;;;;;22.67;58.51;101108.25;4986438;28;20197;-74
2023/07/10 05:42:08;;;;;;;9.47;7.50;;;;;;;22.65;55.88;101105.19;4982147;28;20201;-75
2023/07/10 05:44:34;;;;;;;8.40;7.57;;;;;;;22.62;55.84;101104.03;4969950;28;20212;-75
2023/07/10 05:47:01;;;;;;;10.40;8.40;;;;;;;22.61;56.10;101101.78;4954707;28;20316;-75
2023/07/10 05:49:27;;;;;;;8.97;8.00;;;;;;;22.48;59.32;101110.69;4967612;28;20216;-75
2023/07/10 05:51:55;;;;;;;12.73;8.30;;;;;;;22.40;58.38;101061.50;4968511;28;20339;-75
2023/07/10 05:54:21;;;;;;;12.13;8.40;;;;;;;22.25;61.28;101033.88;4968691;28;20232;-75
2023/07/10 05:56:48;;;;;;;12.77;8.80;;;;;;;22.13;62.29;101063.13;4970521;28;20241;-75
2023/07/10 05:59:15;;;;;;;14.97;8.47;;;;;;;21.92;64.81;101052.47;4971439;28;20210;-78
2023/07/10 06:01:42;;;;;;;11.73;8.77;;;;;;;21.81;63.11;101022.16;4973724;28;20208;-78
2023/07/10 06:04:08;;;;;;;10.13;9.13;;;;;;;21.72;62.78;101019.91;4981550;28;20197;-75
2023/07/10 06:06:35;;;;;;;12.03;9.10;;;;;;;21.61;60.73;101010.28;4983197;28;20228;-76
2023/07/10 06:09:03;;;;;;;9.47;8.47;;;;;;;21.47;66.42;101008.41;4982945;28;20215;-75
2023/07/10 06:11:29;;;;;;;13.43;8.77;;;;;;;21.35;66.47;101006.16;4983943;28;20212;-77
2023/07/10 06:13:55;;;;;;;13.07;9.53;;;;;;;21.30;67.49;101005.78;4984978;28;20229;-76
2023/07/10 06:16:22;;;;;;;12.60;9.17;;;;;;;21.16;68.50;101011.94;4981831;28;20939;-75
2023/07/10 06:18:48;;;;;;;11.97;9.43;;;;;;;21.15;67.56;101020.38;4983757;28;20228;-74
2023/07/10 06:21:15;;;;;;;10.03;8.83;;;;;;;21.10;68.00;101023.44;4982381;28;20730;-74
2023/07/10 06:23:41;;;;;;;10.97;9.00;;;;;;;21.08;66.28;101049.94;4983787;28;20201;-73
2023/07/10 06:26:12;;;;;;;12.33;9.10;;;;;;;21.05;67.56;101091.75;4987455;28;20214;-76
2023/07/10 06:28:38;;;;;;;11.37;8.77;;;;;;;20.98;68.20;101139.31;4986753;28;20206;-73
2023/07/10 06:31:07;;;;;;;14.23;9.43;;;;;;;20.91;69.35;101203.75;4986040;28;20224;-76
2023/07/10 06:33:35;;;;;;;12.83;10.07;;;;;;;20.73;69.23;101235.84;4989174;28;20227;-73
2023/07/10 06:36:04;;;;;;;12.70;9.20;;;;;;;20.58;69.27;101246.88;4989885;28;20335;-72
2023/07/10 06:38:31;;;;;;;13.00;9.63;;;;;;;20.51;68.15;101239.59;4990866;28;20221;-72
2023/07/10 06:41:05;;;;;;;10.47;9.40;;;;;;;20.51;67.94;101242.28;4992470;28;20277;-73
2023/07/10 06:43:34;;;;;;;11.03;9.57;;;;;;;20.49;67.33;101257.22;4992513;28;20260;-75
2023/07/10 06:46:00;;;;;;;10.20;9.17;;;;;;;20.48;67.11;101275.22;4993829;28;20227;-74
2023/07/10 06:48:27;;;;;;;12.87;9.40;;;;;;;20.45;67.36;101269.84;4994731;28;20212;-73
2023/07/10 06:50:58;;;;;;;12.07;9.53;;;;;;;20.46;67.59;101279.41;4992992;28;20217;-74
2023/07/10 06:53:25;;;;;;;12.63;9.43;;;;;;;20.43;68.02;101278.25;4988861;28;20210;-77
2023/07/10 06:55:53;;;;;;;12.13;9.80;;;;;;;20.41;67.81;101269.81;4980598;28;20201;-75
2023/07/10 06:58:19;;;;;;;10.50;9.40;;;;;;;20.40;68.55;101270.19;4988639;28;20262;-73
2023/07/10 07:00:47;;;;;;;12.00;9.77;;;;;;;20.40;69.31;101260.25;4989855;28;20261;-73
2023/07/10 07:03:14;;;;;;;10.93;9.83;;;;;;;20.38;68.80;101233.00;4978209;28;20201;-78
2023/07/10 07:05:41;;;;;;;12.10;9.97;;;;;;;20.38;68.96;101232.25;4973564;28;20201;-76
2023/07/10 07:08:08;;;;;;;11.50;10.20;;;;;;;20.39;70.02;101233.78;4978540;28;20205;-78
2023/07/10 07:10:34;;;;;;;14.90;10.60;;;;;;;20.41;70.01;101210.78;4980029;28;20198;-78
2023/07/10 07:13:01;;;;;;;15.90;11.17;;;;;;;20.41;69.64;101197.38;4987921;28;20213;-76
2023/07/10 07:15:29;;;;;;;12.47;11.20;;;;;;;20.43;70.52;101178.97;4978798;28;20227;-74
2023/07/10 07:17:59;;;;;;;11.93;10.70;;;;;;;20.46;70.33;101158.69;4973808;28;20275;-74
2023/07/10 07:20:26;;;;;;;12.23;11.03;;;;;;;20.48;70.74;101146.44;4970599;28;20210;-74
2023/07/10 07:22:52;;;;;;;12.53;10.73;;;;;;;20.48;71.36;101129.59;4970905;28;20210;-73
2023/07/10 07:25:19;;;;;;;15.47;11.60;;;;;;;20.51;71.22;101118.06;4989773;28;20210;-74
2023/07/10 07:27:46;;;;;;;13.53;11.17;;;;;;;20.59;72.00;101095.50;4973016;28;20245;-73
2023/07/10 07:30:13;;;;;;;12.23;10.60;;;;;;;20.70;71.49;101093.59;4988908;28;20205;-73
2023/07/10 07:32:40;;;;;;;12.30;11.00;;;;;;;20.88;72.60;101086.31;4990029;28;20210;-74
2023/07/10 07:35:08;;;;;;;12.03;10.77;;;;;;;21.07;72.84;101086.00;4971087;28;20218;-75
2023/07/10 07:37:35;;;;;;;15.27;10.50;;;;;;;21.29;73.18;101071.41;4987112;28;20252;-75
2023/07/10 07:40:03;;;;;;;11.63;10.10;;;;;;;21.47;71.61;101064.84;4968578;28;20292;-75
2023/07/10 07:42:31;;;;;;;12.80;10.00;;;;;;;21.66;70.78;101063.66;4969798;28;20247;-75
2023/07/10 07:44:58;;;;;;;11.17;10.07;;;;;;;21.80;70.21;101050.22;4968076;28;20216;-75
2023/07/10 07:47:26;;;;;;;14.53;9.60;;;;;;;21.95;70.00;101044.41;4966232;28;20233;-75
2023/07/10 07:49:53;;;;;;;11.13;8.63;;;;;;;22.09;70.10;101038.94;4967995;28;20567;-75
2023/07/10 07:52:21;;;;;;;12.53;9.10;;;;;;;22.31;69.32;101040.38;4966092;28;20202;-75
2023/07/10 07:54:48;;;;;;;11.50;9.00;;;;;;;22.48;69.49;101046.09;4964336;28;20213;-75
2023/07/10 07:57:15;;;;;;;9.77;8.50;;;;;;;22.69;70.20;101052.88;4964911;28;20232;-75
2023/07/10 07:59:41;;;;;;;9.10;8.17;;;;;;;22.91;71.13;101050.75;4962801;28;20217;-75
2023/07/10 08:02:09;;;;;;;10.47;7.77;;;;;;;23.10;69.52;101053.69;4963972;28;20593;-75
2023/07/10 08:04:36;;;;;;;8.70;7.80;;;;;;;23.26;69.70;101055.88;4959600;28;20678;-75
2023/07/10 08:07:02;;;;;;;9.25;7.82;;;;;;;23.44;68.05;101064.59;4959798;28;20229;-75
2023/07/10 08:09:30;;;;;;;13.35;12.10;;;;;;;23.63;68.00;101067.44;4957639;28;20283;-75
2023/07/10 08:11:56;;;;;;;10.55;9.38;;;;;;;23.80;68.41;101073.84;4958731;28;20554;-75
2023/07/10 08:14:23;;;;;;;8.50;7.70;;;;;;;23.96;67.88;101067.88;4955929;28;20233;-75
2023/07/10 08:16:49;;;;;;;9.10;7.68;;;;;;;24.12;67.29;101073.47;4959313;28;20232;-75
2023/07/10 08:19:16;;;;;;;9.95;8.10;;;;;;;24.27;66.96;101075.59;4955978;28;20210;-75
2023/07/10 08:21:42;;;;;;;9.75;8.80;;;;;;;24.45;68.05;101075.34;4960447;28;20231;-75
2023/07/10 08:24:09;;;;;;;10.70;8.93;;;;;;;24.55;66.76;101079.84;4961262;28;20728;-75
2023/07/10 08:26:37;;;;;;;10.75;9.02;;;;;;;24.68;66.55;101086.22;4958107;28;21117;-75
2023/07/10 08:29:22;;;;;;;9.98;8.43;;;;;;;24.75;66.24;101081.50;4959559;28;20206;-75
2023/07/10 08:31:48;;;;;;;8.98;7.80;;;;;;;24.88;65.26;101081.69;4958894;28;20208;-75
2023/07/10 08:34:15;;;;;;;12.07;7.75;;;;;;;24.96;63.02;101080.41;4955210;28;20229;-75
2023/07/10 08:36:41;;;;;;;9.48;7.85;;;;;;;25.07;63.96;101089.13;4958377;28;20221;-74
2023/07/10 08:39:08;;;;;;;9.30;8.40;;;;;;;25.17;63.91;101083.53;4941416;28;20213;-74
2023/07/10 08:41:34;;;;;;;9.55;7.80;;;;;;;25.27;62.82;101073.75;4957419;28;20271;-75
2023/07/10 08:44:02;;;;;;;8.63;7.43;;;;;;;25.38;62.49;101075.06;4940487;28;20205;-75
2023/07/10 08:46:30;;;;;;;8.30;7.50;;;;;;;25.49;63.17;101069.47;4955255;28;20312;-75
2023/07/10 08:49:03;;;;;;;7.90;7.00;;;;;;;25.61;63.13;101066.94;4955540;28;20978;-75
2023/07/10 08:51:39;;;;;;;9.38;7.55;;;;;;;25.72;62.67;101066.72;4955421;28;20207;-74
2023/07/10 08:54:11;;;;;;;10.20;8.18;;;;;;;25.84;62.71;101060.69;4938063;28;20225;-74
2023/07/10 08:56:43;;;;;;;8.35;6.93;;;;;;;25.96;63.22;101055.41;4954885;28;20619;-74
2023/07/10 08:59:34;;;;;;;11.40;7.55;;;;;;;26.08;62.58;101048.63;4958532;28;20229;-74
2023/07/10 09:02:01;;;;;;;15.73;8.48;;;;;;;26.21;63.05;101055.66;4956473;28;20213;-74
2023/07/10 09:04:31;;;;;;;11.95;8.40;;;;;;;26.36;59.95;101040.66;4955883;28;20690;-74
2023/07/10 09:07:00;;;;;;;9.80;8.15;;;;;;;26.49;64.66;101046.16;4946862;28;20480;-74
2023/07/10 09:09:36;;;;;;;9.77;8.25;;;;;;;26.59;60.23;101043.25;4975567;28;20339;-75
2023/07/10 09:12:06;;;;;;;10.80;8.32;;;;;;;26.71;60.46;101039.88;4972710;28;20211;-74
2023/07/10 09:14:40;;;;;;;10.23;8.02;;;;;;;26.83;59.88;101039.16;4953908;28;20222;-74
2023/07/10 09:17:20;;;;;;;9.25;8.25;;;;;;;26.95;60.63;101035.78;4954281;28;20224;-74
2023/07/10 09:19:52;;;;;;;10.10;8.55;;;;;;;27.05;59.61;101034.00;4952879;28;20220;-74
2023/07/10 09:22:19;;;;;;;8.98;8.07;;;;;;;27.18;58.69;101022.06;4952199;28;20209;-74
2023/07/10 09:24:45;;;;;;;11.68;8.32;;;;;;;27.28;56.64;101015.59;4953790;28;20976;-74
2023/07/10 09:27:13;;;;;;;8.80;7.43;;;;;;;27.38;59.36;101011.84;4953145;28;20343;-74
2023/07/10 09:29:43;;;;;;;11.13;8.45;;;;;;;27.51;58.51;101004.47;4954669;28;20202;-73
2023/07/10 09:32:12;;;;;;;9.73;8.73;;;;;;;27.64;56.26;101008.00;4952164;28;20205;-74
2023/07/10 09:34:45;;;;;;;10.32;8.68;;;;;;;27.76;58.13;101003.81;4949423;28;20663;-74
2023/07/10 09:37:13;;;;;;;9.07;7.90;;;;;;;27.89;55.94;101004.59;4953813;28;20720;-74
2023/07/10 09:39:40;;;;;;;10.35;8.02;;;;;;;28.02;58.01;100989.09;4953701;28;20213;-75
2023/07/10 09:42:14;;;;;;;10.95;8.02;;;;;;;28.15;57.54;100981.69;4952507;28;20232;-74
2023/07/10 09:44:47;;;;;;;11.50;8.02;;;;;;;28.28;55.11;100985.19;4950602;28;20212;-74
2023/07/10 09:47:17;;;;;;;9.95;7.50;;;;;;;28.43;54.63;100989.75;4950736;28;20225;-74
2023/07/10 09:49:47;;;;;;;9.32;8.32;;;;;;;28.56;55.19;101006.03;4950667;28;20217;-74
2023/07/10 09:52:27;;;;;;;9.63;7.90;;;;;;;28.66;53.70;101013.09;4954519;28;20702;-75
2023/07/10 09:55:11;;;;;;;10.95;7.78;;;;;;;28.81;54.70;101019.59;4956499;28;20919;-74
2023/07/10 09:57:51;;;;;;;8.48;7.68;;;;;;;28.99;55.50;101019.78;4954635;28;20241;-74
2023/07/10 10:00:20;;;;;;;9.63;7.35;;;;;;;29.15;53.90;101004.06;4936133;28;21199;-74
2023/07/10 10:02:52;;;;;;;9.77;7.25;;;;;;;29.33;51.68;101006.16;4952021;28;20232;-74
2023/07/10 10:05:20;;;;;;;8.82;7.03;;;;;;;29.51;50.55;101001.59;4953669;28;20201;-74
2023/07/10 10:07:48;;;;;;;9.50;7.00;;;;;;;29.70;51.38;100997.06;4953801;28;20248;-74
2023/07/10 10:10:22;;;;;;;7.93;6.90;;;;;;;29.85;45.52;101000.78;4936704;28;20924;-74
2023/07/10 10:12:53;;;;;;;9.40;6.47;;;;;;;30.00;50.83;101005.25;4958195;28;21667;-75
2023/07/10 10:15:26;;;;;;;8.63;6.57;;;;;;;30.14;45.95;100995.81;4979656;28;20256;-75
2023/07/10 10:17:57;;;;;;;10.20;5.95;;;;;;;30.26;44.31;101006.59;4980614;28;20287;-72
2023/07/10 10:20:29;;;;;;;6.57;5.72;;;;;;;30.36;45.60;101001.94;4979188;28;20220;-77
2023/07/10 10:22:59;;;;;;;7.82;5.28;;;;;;;30.45;44.66;101004.69;4966211;28;20216;-76
2023/07/10 10:25:34;;;;;;;6.05;4.03;;;;;;;30.56;48.59;101002.28;4978844;28;20603;-77
2023/07/10 10:28:12;;;;;;;4.57;3.55;;;;;;;30.66;42.56;101001.13;4979560;28;20287;-76
2023/07/10 10:30:46;;;;;;;5.13;4.20;;;;;;;31.04;40.46;101006.91;4979340;28;20201;-76
2023/07/10 10:33:24;;;;;;;6.45;4.38;;;;;;;31.17;39.03;101007.53;4977617;28;20280;-73
2023/07/10 10:35:56;;;;;;;3.90;3.50;;;;;;;31.26;38.68;101005.56;4978977;28;20217;-74
2023/07/10 10:38:39;;;;;;;3.75;3.45;;;;;;;31.37;41.26;101003.13;4978631;28;20197;-76
2023/07/10 10:41:32;;;;;;;4.00;3.60;;;;;;;31.21;38.30;100998.00;4961092;28;20217;-74
2023/07/10 10:44:05;;;;;;;3.35;2.97;;;;;;;31.44;43.44;100991.16;4949189;28;20205;-74
2023/07/10 10:46:47;;;;;;;4.30;3.70;;;;;;;31.58;40.37;100988.53;4950330;28;20229;-74
2023/07/10 10:49:42;;;;;;;4.13;3.53;;;;;;;31.67;41.41;100977.59;4950860;28;20243;-74
2023/07/10 10:52:21;;;;;;;4.88;3.47;;;;;;;31.69;43.65;100977.13;4954073;28;20260;-74
2023/07/10 10:55:00;;;;;;;4.28;3.38;;;;;;;31.71;40.72;100974.69;4951384;28;20221;-74
2023/07/10 10:57:39;;;;;;;4.47;3.42;;;;;;;31.66;36.10;100980.78;4950832;28;20229;-74
2023/07/10 11:00:23;;;;;;;3.95;3.45;;;;;;;31.57;36.77;100987.03;4953250;28;20221;-74
2023/07/10 11:03:05;;;;;;;4.07;2.95;;;;;;;31.63;38.18;100978.94;4951188;28;20225;-74
2023/07/10 11:05:36;;;;;;;5.22;3.42;;;;;;;31.64;37.57;100969.56;4951350;28;20427;-74
2023/07/10 11:08:09;;;;;;;4.40;3.72;;;;;;;31.73;40.61;100977.72;4951367;28;20338;-74
2023/07/10 11:10:41;;;;;;;3.50;3.20;;;;;;;31.80;41.50;100972.72;4950775;28;20216;-74
2023/07/10 11:13:20;;;;;;;4.63;3.53;;;;;;;31.83;38.93;100960.88;4953776;28;20205;-74
2023/07/10 11:15:47;;;;;;;4.28;3.58;;;;;;;31.78;37.97;100969.69;4951927;28;20225;-74
2023/07/10 11:18:16;;;;;;;4.72;3.38;;;;;;;31.77;41.20;100951.78;4951711;28;20313;-74
2023/07/10 11:20:43;;;;;;;4.78;3.47;;;;;;;31.86;42.62;100951.00;4950057;28;20229;-74
2023/07/10 11:23:31;;;;;;;3.67;3.22;;;;;;;31.93;37.83;100956.88;4948883;28;20323;-74
2023/07/10 11:26:01;;;;;;;5.82;3.50;;;;;;;31.98;38.47;100964.47;4950809;28;20237;-74
2023/07/10 11:28:31;;;;;;;6.35;3.60;;;;;;;32.05;37.98;100961.38;4951985;28;20840;-74
2023/07/10 11:31:36;;;;;;;4.53;3.63;;;;;;;32.07;36.99;100961.69;4940816;28;20213;-74